Hauptseite
METAR-TAF:

METAR-TAF

Flughäfen :

Ankara Güvercinlik, Türkei

Breite: 39-56N, Länge: 032-45E, Höhe: 819 m

METAR: fehlend

Zeit: 09:56 (06:56 UTC)

Prognose

Neuester Wetterbericht von vor 2 Stunden und 16 Minuten, um 04:40 UTC
Gültige Prognose vom 18 um 06 UTC bis 18 um 15 UTC
Wind 2 kt aus unterschiedlichen Richtungen
Sichtweite 10 km oder mehr
keine Wolken unter 1500 m und keine Kumulonimbus oder Gewitterwolken

TAF: LTAB 180440Z 1806/1815 VRB02KT CAVOK

Wetterbeobachtungen und Prognosen von mehr als 4000 Flughäfen (METAR und TAF Bericht).

Die verfügbaren Stationen werden durch gelbe und rote Markierungen auf der Karte dargestellt.

Führen Sie die Maus auf sie, um den Namen der Station zu sehen.

Darauf klicken, um die Beobachtung von Wetterbeobachtungen und Prognosen zu sehen.

Um die Karte zu ändern : klicken Sie auf den grünen Tasten mit einem schwarzen Kreuz Zum Vergrößern, auf den grünen Button mit einem Gedankenstrich zu verkleinern, oder auf die grünen Pfeile für benachbarte Karten.


METAR-TAF: